N421SV LEVT-LSZR
Flight info
| Callsign | N421SV |
|---|---|
| Flight time | 1h 22m |
| Altitude | 40000 |
| Route | CEGAM L176 SSN P181 URUNA DCT LACOU DCT NOQAS DCT FRIBU DCT BERSU N871 DITON Z671 ROLSA |
| Aircraft | LJ35/M-SGHRWXY/SB1 |
Departure
| Time | 2026-04-27 20:25 |
|---|---|
| Airport | Vitoria Airport (LEVT) |
Arrival
| Time | 2026-04-27 21:47 |
|---|---|
| Airport | Sankt Gallen Altenrhein Airport (LSZR) |
| Time | Latitude | Longitude | Altitude | Speed | Heading |
|---|---|---|---|---|---|
| 2026-04-27 20:16 | 42.87916 | -2.73492 | 1661 ft | 0 kts | 36° |
| 2026-04-27 20:19 | 42.87922 | -2.73477 | 1661 ft | 5 kts | 83° |
| 2026-04-27 20:19 | 42.87917 | -2.73400 | 1661 ft | 10 kts | 96° |
| 2026-04-27 20:19 | 42.87919 | -2.73371 | 1661 ft | 4 kts | 42° |
| 2026-04-27 20:19 | 42.87952 | -2.73337 | 1662 ft | 7 kts | 36° |
| 2026-04-27 20:20 | 42.87994 | -2.73283 | 1662 ft | 9 kts | 80° |
| 2026-04-27 20:20 | 42.87956 | -2.73186 | 1666 ft | 14 kts | 125° |
| 2026-04-27 20:20 | 42.87902 | -2.73065 | 1666 ft | 16 kts | 102° |
| 2026-04-27 20:20 | 42.87915 | -2.72938 | 1667 ft | 0 kts | 64° |
| 2026-04-27 20:23 | 42.87925 | -2.72908 | 1668 ft | 10 kts | 66° |
| 2026-04-27 20:24 | 42.87972 | -2.72775 | 1665 ft | 16 kts | 59° |
| 2026-04-27 20:24 | 42.88005 | -2.72722 | 1663 ft | 0 kts | 36° |
| 2026-04-27 20:24 | 42.88192 | -2.72538 | 1673 ft | 87 kts | 36° |
| 2026-04-27 20:24 | 42.88988 | -2.71751 | 1754 ft | 187 kts | 37° |
| 2026-04-27 20:25 | 42.89785 | -2.70917 | 2818 ft | 192 kts | 37° |
| 2026-04-27 20:25 | 42.89995 | -2.70691 | 3109 ft | 197 kts | 38° |
| 2026-04-27 20:25 | 42.91033 | -2.69375 | 4552 ft | 213 kts | 57° |
| 2026-04-27 20:25 | 42.91519 | -2.67426 | 6038 ft | 222 kts | 83° |
| 2026-04-27 20:26 | 42.91396 | -2.65315 | 7526 ft | 226 kts | 110° |
| 2026-04-27 20:26 | 42.90659 | -2.63417 | 9062 ft | 232 kts | 127° |
| 2026-04-27 20:26 | 42.89686 | -2.61463 | 10051 ft | 269 kts | 126° |
| 2026-04-27 20:26 | 42.88568 | -2.59159 | 10833 ft | 299 kts | 125° |
| 2026-04-27 20:27 | 42.87461 | -2.56818 | 12586 ft | 300 kts | 125° |
| 2026-04-27 20:27 | 42.86296 | -2.54396 | 14042 ft | 311 kts | 126° |
| 2026-04-27 20:27 | 42.85167 | -2.51831 | 15413 ft | 321 kts | 117° |
| 2026-04-27 20:27 | 42.84513 | -2.48876 | 16791 ft | 332 kts | 102° |
| 2026-04-27 20:28 | 42.84427 | -2.45679 | 18134 ft | 344 kts | 87° |
| 2026-04-27 20:28 | 42.84979 | -2.42463 | 19300 ft | 354 kts | 70° |
| 2026-04-27 20:28 | 42.86179 | -2.39504 | 20484 ft | 361 kts | 53° |
| 2026-04-27 20:28 | 42.87295 | -2.37809 | 21254 ft | 365 kts | 44° |
| 2026-04-27 20:29 | 42.89821 | -2.34628 | 22809 ft | 374 kts | 42° |
| 2026-04-27 20:29 | 42.91751 | -2.32188 | 23897 ft | 381 kts | 43° |
| 2026-04-27 20:29 | 42.93684 | -2.29680 | 24830 ft | 387 kts | 43° |
| 2026-04-27 20:29 | 42.95649 | -2.27130 | 25769 ft | 392 kts | 43° |
| 2026-04-27 20:30 | 42.97648 | -2.24566 | 26619 ft | 398 kts | 42° |
| 2026-04-27 20:30 | 42.99716 | -2.21998 | 27487 ft | 404 kts | 40° |
| 2026-04-27 20:30 | 43.01818 | -2.19419 | 28333 ft | 409 kts | 41° |
| 2026-04-27 20:30 | 43.03931 | -2.16783 | 29141 ft | 414 kts | 41° |
| 2026-04-27 20:31 | 43.06078 | -2.14116 | 29909 ft | 420 kts | 41° |
| 2026-04-27 20:31 | 43.08263 | -2.11429 | 30568 ft | 425 kts | 41° |
| 2026-04-27 20:31 | 43.10446 | -2.08738 | 31180 ft | 429 kts | 41° |
| 2026-04-27 20:31 | 43.12671 | -2.05980 | 31747 ft | 434 kts | 41° |
| 2026-04-27 20:32 | 43.14919 | -2.03186 | 32327 ft | 438 kts | 41° |
| 2026-04-27 20:32 | 43.17189 | -2.00375 | 32870 ft | 442 kts | 41° |
| 2026-04-27 20:32 | 43.19482 | -1.97536 | 33405 ft | 446 kts | 41° |
| 2026-04-27 20:32 | 43.21791 | -1.94665 | 33890 ft | 451 kts | 41° |
| 2026-04-27 20:33 | 43.24127 | -1.91755 | 34310 ft | 455 kts | 41° |
| 2026-04-27 20:33 | 43.26473 | -1.88833 | 34762 ft | 457 kts | 40° |
| 2026-04-27 20:33 | 43.28824 | -1.85906 | 35322 ft | 456 kts | 40° |
| 2026-04-27 20:33 | 43.31082 | -1.82854 | 35857 ft | 457 kts | 47° |
| 2026-04-27 20:34 | 43.32947 | -1.79333 | 36412 ft | 457 kts | 56° |
| 2026-04-27 20:34 | 43.34694 | -1.75663 | 36927 ft | 456 kts | 56° |
| 2026-04-27 20:34 | 43.36310 | -1.71905 | 37408 ft | 457 kts | 62° |
| 2026-04-27 20:34 | 43.37738 | -1.68003 | 37919 ft | 457 kts | 63° |
| 2026-04-27 20:35 | 43.39160 | -1.64157 | 38396 ft | 456 kts | 62° |
| 2026-04-27 20:35 | 43.40618 | -1.60286 | 38858 ft | 456 kts | 62° |
| 2026-04-27 20:35 | 43.42069 | -1.56408 | 39236 ft | 456 kts | 62° |
| 2026-04-27 20:35 | 43.43505 | -1.52529 | 39581 ft | 456 kts | 62° |
| 2026-04-27 20:36 | 43.44936 | -1.48626 | 39977 ft | 455 kts | 62° |
| 2026-04-27 20:36 | 43.46381 | -1.44712 | 40117 ft | 462 kts | 62° |
| 2026-04-27 20:36 | 43.49363 | -1.36676 | 40123 ft | 478 kts | 62° |
| 2026-04-27 20:37 | 43.52396 | -1.28455 | 40130 ft | 483 kts | 62° |
| 2026-04-27 20:37 | 43.55418 | -1.20168 | 40123 ft | 483 kts | 62° |
| 2026-04-27 20:38 | 43.58439 | -1.11907 | 40118 ft | 482 kts | 62° |
| 2026-04-27 20:38 | 43.61449 | -1.03666 | 40112 ft | 481 kts | 62° |
| 2026-04-27 20:39 | 43.64421 | -0.95488 | 40110 ft | 480 kts | 62° |
| 2026-04-27 20:39 | 43.67405 | -0.87250 | 40110 ft | 479 kts | 62° |
| 2026-04-27 20:40 | 43.70387 | -0.79005 | 40110 ft | 479 kts | 62° |
| 2026-04-27 20:40 | 43.73356 | -0.70753 | 40105 ft | 479 kts | 62° |
| 2026-04-27 20:41 | 43.76321 | -0.62513 | 40105 ft | 478 kts | 62° |
| 2026-04-27 20:41 | 43.78992 | -0.55054 | 40105 ft | 478 kts | 62° |
| 2026-04-27 20:42 | 43.80930 | -0.49626 | 40112 ft | 479 kts | 62° |
| 2026-04-27 20:43 | 43.83888 | -0.41337 | 40109 ft | 479 kts | 62° |
| 2026-04-27 20:43 | 43.86829 | -0.33057 | 40108 ft | 479 kts | 63° |
| 2026-04-27 20:44 | 43.89768 | -0.24766 | 40104 ft | 479 kts | 63° |
| 2026-04-27 20:44 | 43.92683 | -0.16516 | 40099 ft | 479 kts | 63° |
| 2026-04-27 20:45 | 43.95607 | -0.08209 | 40098 ft | 479 kts | 63° |
| 2026-04-27 20:45 | 43.98527 | 0.00107 | 40084 ft | 479 kts | 63° |
| 2026-04-27 20:46 | 44.01443 | 0.08435 | 40084 ft | 478 kts | 63° |
| 2026-04-27 20:46 | 44.04353 | 0.16767 | 40082 ft | 479 kts | 63° |
| 2026-04-27 20:47 | 44.07254 | 0.25112 | 40081 ft | 479 kts | 63° |
| 2026-04-27 20:47 | 44.10133 | 0.33409 | 40081 ft | 479 kts | 63° |
| 2026-04-27 20:48 | 44.12556 | 0.40418 | 40086 ft | 480 kts | 63° |
| 2026-04-27 20:48 | 44.15916 | 0.50157 | 40084 ft | 480 kts | 63° |
| 2026-04-27 20:49 | 44.18799 | 0.58541 | 40079 ft | 480 kts | 63° |
| 2026-04-27 20:49 | 44.21673 | 0.66936 | 40081 ft | 480 kts | 63° |
| 2026-04-27 20:50 | 44.24545 | 0.75345 | 40082 ft | 480 kts | 63° |
| 2026-04-27 20:50 | 44.27411 | 0.83764 | 40081 ft | 480 kts | 63° |
| 2026-04-27 20:51 | 44.30228 | 0.92229 | 40056 ft | 481 kts | 66° |
| 2026-04-27 20:51 | 44.32749 | 1.00872 | 40056 ft | 481 kts | 66° |
| 2026-04-27 20:52 | 44.35303 | 1.09517 | 40057 ft | 481 kts | 66° |
| 2026-04-27 20:52 | 44.37824 | 1.18096 | 40061 ft | 481 kts | 66° |
| 2026-04-27 20:53 | 44.40342 | 1.26763 | 40062 ft | 481 kts | 66° |
| 2026-04-27 20:53 | 44.42876 | 1.35418 | 40073 ft | 481 kts | 66° |
| 2026-04-27 20:54 | 44.46643 | 1.48445 | 40071 ft | 481 kts | 66° |
| 2026-04-27 20:55 | 44.49158 | 1.57139 | 40076 ft | 481 kts | 66° |
| 2026-04-27 20:55 | 44.51659 | 1.65833 | 40076 ft | 481 kts | 66° |
| 2026-04-27 20:56 | 44.54154 | 1.74547 | 40078 ft | 481 kts | 66° |
| 2026-04-27 20:56 | 44.56644 | 1.83259 | 40079 ft | 481 kts | 66° |
| 2026-04-27 20:57 | 44.59127 | 1.91980 | 40083 ft | 481 kts | 66° |
| 2026-04-27 20:57 | 44.61589 | 2.00664 | 40085 ft | 482 kts | 66° |
| 2026-04-27 20:58 | 44.64069 | 2.09429 | 40088 ft | 483 kts | 66° |
| 2026-04-27 20:58 | 44.66537 | 2.18201 | 40106 ft | 483 kts | 67° |
| 2026-04-27 20:59 | 44.69006 | 2.26999 | 40113 ft | 483 kts | 67° |
| 2026-04-27 20:59 | 44.71464 | 2.35790 | 40123 ft | 483 kts | 67° |
| 2026-04-27 21:00 | 44.73917 | 2.44589 | 40125 ft | 483 kts | 67° |
| 2026-04-27 21:00 | 44.76364 | 2.53407 | 40128 ft | 483 kts | 67° |
| 2026-04-27 21:01 | 44.78795 | 2.62211 | 40129 ft | 483 kts | 67° |
| 2026-04-27 21:01 | 44.81231 | 2.71034 | 40122 ft | 483 kts | 67° |
| 2026-04-27 21:02 | 44.83656 | 2.79865 | 40119 ft | 483 kts | 67° |
| 2026-04-27 21:02 | 44.86071 | 2.88693 | 40111 ft | 483 kts | 67° |
| 2026-04-27 21:03 | 44.88465 | 2.97479 | 40111 ft | 483 kts | 67° |
| 2026-04-27 21:03 | 44.90869 | 3.06322 | 40108 ft | 483 kts | 67° |
| 2026-04-27 21:04 | 44.93263 | 3.15183 | 40107 ft | 482 kts | 67° |
| 2026-04-27 21:04 | 44.95653 | 3.24031 | 40102 ft | 483 kts | 67° |
| 2026-04-27 21:05 | 44.97635 | 3.31410 | 40101 ft | 483 kts | 67° |
| 2026-04-27 21:05 | 45.00011 | 3.40291 | 40098 ft | 483 kts | 67° |
| 2026-04-27 21:06 | 45.02383 | 3.49176 | 40099 ft | 483 kts | 67° |
| 2026-04-27 21:06 | 45.04744 | 3.58061 | 40098 ft | 483 kts | 67° |
| 2026-04-27 21:07 | 45.07101 | 3.66961 | 40101 ft | 483 kts | 67° |
| 2026-04-27 21:07 | 45.09451 | 3.75871 | 40099 ft | 483 kts | 68° |
| 2026-04-27 21:08 | 45.11792 | 3.84780 | 40094 ft | 483 kts | 68° |
| 2026-04-27 21:08 | 45.14134 | 3.93717 | 40099 ft | 485 kts | 68° |
| 2026-04-27 21:09 | 45.16472 | 4.02689 | 40100 ft | 485 kts | 68° |
| 2026-04-27 21:09 | 45.18788 | 4.11605 | 40101 ft | 485 kts | 68° |
| 2026-04-27 21:10 | 45.21130 | 4.20597 | 40098 ft | 485 kts | 67° |
| 2026-04-27 21:10 | 45.22637 | 4.24847 | 40083 ft | 481 kts | 56° |
| 2026-04-27 21:10 | 45.24567 | 4.28697 | 40090 ft | 477 kts | 49° |
| 2026-04-27 21:11 | 45.28674 | 4.36090 | 40095 ft | 477 kts | 49° |
| 2026-04-27 21:11 | 45.32718 | 4.43561 | 40101 ft | 477 kts | 49° |
| 2026-04-27 21:12 | 45.36795 | 4.50989 | 40101 ft | 476 kts | 49° |
| 2026-04-27 21:12 | 45.40848 | 4.58447 | 40099 ft | 477 kts | 49° |
| 2026-04-27 21:13 | 45.44896 | 4.65917 | 40090 ft | 476 kts | 49° |
| 2026-04-27 21:13 | 45.48951 | 4.73389 | 40077 ft | 477 kts | 49° |
| 2026-04-27 21:14 | 45.52994 | 4.80895 | 40072 ft | 477 kts | 49° |
| 2026-04-27 21:14 | 45.57043 | 4.88403 | 40068 ft | 477 kts | 49° |
| 2026-04-27 21:15 | 45.61088 | 4.95939 | 40069 ft | 477 kts | 49° |
| 2026-04-27 21:15 | 45.65099 | 5.03428 | 40072 ft | 477 kts | 49° |
| 2026-04-27 21:16 | 45.69137 | 5.10985 | 40072 ft | 478 kts | 49° |
| 2026-04-27 21:16 | 45.73165 | 5.18547 | 40084 ft | 477 kts | 50° |
| 2026-04-27 21:17 | 45.77186 | 5.26112 | 40082 ft | 477 kts | 50° |
| 2026-04-27 21:17 | 45.81204 | 5.33696 | 40079 ft | 478 kts | 50° |
| 2026-04-27 21:18 | 45.85216 | 5.41289 | 40079 ft | 478 kts | 50° |
| 2026-04-27 21:18 | 45.89229 | 5.48903 | 40081 ft | 478 kts | 50° |
| 2026-04-27 21:19 | 45.93233 | 5.56518 | 40082 ft | 477 kts | 50° |
| 2026-04-27 21:19 | 45.97227 | 5.64138 | 40079 ft | 477 kts | 50° |
| 2026-04-27 21:20 | 46.03212 | 5.75592 | 40092 ft | 478 kts | 50° |
| 2026-04-27 21:20 | 46.07195 | 5.83244 | 40095 ft | 478 kts | 50° |
| 2026-04-27 21:21 | 46.11178 | 5.90908 | 40077 ft | 478 kts | 50° |
| 2026-04-27 21:21 | 46.15157 | 5.98598 | 40085 ft | 478 kts | 50° |
| 2026-04-27 21:22 | 46.19134 | 6.06299 | 40080 ft | 478 kts | 50° |
| 2026-04-27 21:22 | 46.23108 | 6.14012 | 40080 ft | 479 kts | 50° |
| 2026-04-27 21:23 | 46.27076 | 6.21741 | 40082 ft | 479 kts | 50° |
| 2026-04-27 21:23 | 46.31046 | 6.29491 | 40081 ft | 479 kts | 50° |
| 2026-04-27 21:24 | 46.35008 | 6.37251 | 40075 ft | 479 kts | 50° |
| 2026-04-27 21:24 | 46.38941 | 6.44972 | 40089 ft | 479 kts | 50° |
| 2026-04-27 21:25 | 46.42900 | 6.52764 | 40076 ft | 479 kts | 50° |
| 2026-04-27 21:25 | 46.46843 | 6.60550 | 40073 ft | 479 kts | 50° |
| 2026-04-27 21:26 | 46.50782 | 6.68350 | 40083 ft | 479 kts | 50° |
| 2026-04-27 21:26 | 46.54717 | 6.76160 | 40082 ft | 479 kts | 50° |
| 2026-04-27 21:27 | 46.58649 | 6.83992 | 40086 ft | 479 kts | 50° |
| 2026-04-27 21:27 | 46.62548 | 6.91775 | 40085 ft | 478 kts | 50° |
| 2026-04-27 21:28 | 46.66464 | 6.99609 | 40086 ft | 478 kts | 50° |
| 2026-04-27 21:28 | 46.68415 | 7.03520 | 39742 ft | 477 kts | 50° |
| 2026-04-27 21:28 | 46.70358 | 7.07423 | 39250 ft | 474 kts | 50° |
| 2026-04-27 21:29 | 46.72290 | 7.11307 | 38777 ft | 472 kts | 50° |
| 2026-04-27 21:29 | 46.74217 | 7.15185 | 38191 ft | 472 kts | 50° |
| 2026-04-27 21:29 | 46.76087 | 7.19120 | 37585 ft | 474 kts | 56° |
| 2026-04-27 21:29 | 46.77624 | 7.23398 | 37011 ft | 478 kts | 61° |
| 2026-04-27 21:30 | 46.78971 | 7.27843 | 36455 ft | 480 kts | 64° |
| 2026-04-27 21:30 | 46.80266 | 7.32335 | 35918 ft | 480 kts | 64° |
| 2026-04-27 21:30 | 46.81678 | 7.36740 | 35380 ft | 479 kts | 61° |
| 2026-04-27 21:30 | 46.83167 | 7.41092 | 34880 ft | 479 kts | 61° |
| 2026-04-27 21:31 | 46.84599 | 7.45508 | 34375 ft | 482 kts | 63° |
| 2026-04-27 21:31 | 46.85968 | 7.49996 | 33847 ft | 483 kts | 63° |
| 2026-04-27 21:31 | 46.87356 | 7.54457 | 33298 ft | 483 kts | 62° |
| 2026-04-27 21:31 | 46.88797 | 7.58895 | 32743 ft | 482 kts | 62° |
| 2026-04-27 21:32 | 46.90227 | 7.63330 | 32200 ft | 482 kts | 63° |
| 2026-04-27 21:32 | 46.91621 | 7.67787 | 31675 ft | 482 kts | 63° |
| 2026-04-27 21:32 | 46.93008 | 7.72247 | 31175 ft | 482 kts | 63° |
| 2026-04-27 21:32 | 46.94400 | 7.76644 | 30630 ft | 482 kts | 63° |
| 2026-04-27 21:33 | 46.95818 | 7.81107 | 29871 ft | 486 kts | 63° |
| 2026-04-27 21:33 | 46.97233 | 7.85612 | 29044 ft | 488 kts | 63° |
| 2026-04-27 21:33 | 46.98643 | 7.90142 | 28239 ft | 488 kts | 63° |
| 2026-04-27 21:33 | 47.00057 | 7.94673 | 27453 ft | 489 kts | 63° |
| 2026-04-27 21:34 | 47.01476 | 7.99180 | 26701 ft | 486 kts | 63° |
| 2026-04-27 21:34 | 47.02883 | 8.03672 | 25958 ft | 483 kts | 64° |
| 2026-04-27 21:34 | 47.04269 | 8.08143 | 25217 ft | 480 kts | 64° |
| 2026-04-27 21:34 | 47.05648 | 8.12600 | 24508 ft | 478 kts | 64° |
| 2026-04-27 21:35 | 47.07039 | 8.17085 | 23810 ft | 475 kts | 64° |
| 2026-04-27 21:35 | 47.08390 | 8.21433 | 23034 ft | 473 kts | 64° |
| 2026-04-27 21:35 | 47.09747 | 8.25819 | 22234 ft | 470 kts | 64° |
| 2026-04-27 21:35 | 47.11086 | 8.30169 | 21486 ft | 467 kts | 64° |
| 2026-04-27 21:36 | 47.12418 | 8.34499 | 20733 ft | 463 kts | 64° |
| 2026-04-27 21:36 | 47.13741 | 8.38803 | 19995 ft | 460 kts | 64° |
| 2026-04-27 21:36 | 47.15045 | 8.43052 | 19457 ft | 451 kts | 65° |
| 2026-04-27 21:36 | 47.16315 | 8.47217 | 18935 ft | 442 kts | 65° |
| 2026-04-27 21:37 | 47.17566 | 8.51310 | 18422 ft | 435 kts | 65° |
| 2026-04-27 21:37 | 47.18799 | 8.55337 | 17847 ft | 429 kts | 65° |
| 2026-04-27 21:37 | 47.20006 | 8.59293 | 17266 ft | 425 kts | 65° |
| 2026-04-27 21:37 | 47.21207 | 8.63244 | 16694 ft | 421 kts | 65° |
| 2026-04-27 21:38 | 47.22397 | 8.67163 | 16137 ft | 418 kts | 65° |
| 2026-04-27 21:38 | 47.23581 | 8.71060 | 15587 ft | 415 kts | 65° |
| 2026-04-27 21:38 | 47.24750 | 8.74921 | 15054 ft | 412 kts | 65° |
| 2026-04-27 21:38 | 47.25906 | 8.78742 | 14524 ft | 406 kts | 65° |
| 2026-04-27 21:39 | 47.27047 | 8.82513 | 14006 ft | 400 kts | 65° |
| 2026-04-27 21:39 | 47.28173 | 8.86245 | 13433 ft | 396 kts | 65° |
| 2026-04-27 21:39 | 47.29430 | 8.89822 | 12846 ft | 392 kts | 56° |
| 2026-04-27 21:39 | 47.31029 | 8.93047 | 12282 ft | 388 kts | 52° |
| 2026-04-27 21:40 | 47.32633 | 8.96248 | 11722 ft | 386 kts | 53° |
| 2026-04-27 21:40 | 47.34203 | 8.99450 | 11179 ft | 385 kts | 53° |
| 2026-04-27 21:40 | 47.35770 | 9.02642 | 10638 ft | 383 kts | 53° |
| 2026-04-27 21:40 | 47.37344 | 9.05811 | 10116 ft | 381 kts | 53° |
| 2026-04-27 21:41 | 47.38907 | 9.08964 | 9552 ft | 380 kts | 53° |
| 2026-04-27 21:41 | 47.40436 | 9.12069 | 8992 ft | 378 kts | 53° |
| 2026-04-27 21:41 | 47.41964 | 9.15179 | 8430 ft | 365 kts | 53° |
| 2026-04-27 21:41 | 47.42221 | 9.15702 | 8336 ft | 362 kts | 53° |
| 2026-04-27 21:42 | 47.43102 | 9.17498 | 7996 ft | 350 kts | 54° |
| 2026-04-27 21:42 | 47.44504 | 9.20346 | 7442 ft | 335 kts | 53° |
| 2026-04-27 21:42 | 47.45852 | 9.23065 | 6895 ft | 321 kts | 53° |
| 2026-04-27 21:42 | 47.47139 | 9.25644 | 6352 ft | 303 kts | 53° |
| 2026-04-27 21:43 | 47.48364 | 9.28085 | 5783 ft | 289 kts | 53° |
| 2026-04-27 21:43 | 47.49543 | 9.30423 | 5220 ft | 278 kts | 53° |
| 2026-04-27 21:43 | 47.50550 | 9.32760 | 4965 ft | 257 kts | 66° |
| 2026-04-27 21:43 | 47.51020 | 9.35167 | 4834 ft | 237 kts | 85° |
| 2026-04-27 21:44 | 47.50870 | 9.37567 | 4435 ft | 234 kts | 101° |
| 2026-04-27 21:44 | 47.50544 | 9.39859 | 4088 ft | 222 kts | 101° |
| 2026-04-27 21:44 | 47.50275 | 9.42033 | 3728 ft | 204 kts | 99° |
| 2026-04-27 21:44 | 47.50113 | 9.43348 | 3573 ft | 189 kts | 100° |
| 2026-04-27 21:45 | 47.49856 | 9.45180 | 3377 ft | 176 kts | 101° |
| 2026-04-27 21:45 | 47.49527 | 9.47511 | 2731 ft | 176 kts | 101° |
| 2026-04-27 21:45 | 47.49356 | 9.48634 | 2504 ft | 161 kts | 101° |
| 2026-04-27 21:45 | 47.49149 | 9.50115 | 2195 ft | 140 kts | 100° |
| 2026-04-27 21:46 | 47.48990 | 9.51493 | 1949 ft | 135 kts | 98° |
| 2026-04-27 21:46 | 47.48846 | 9.52876 | 1726 ft | 138 kts | 98° |
| 2026-04-27 21:46 | 47.48695 | 9.54268 | 1482 ft | 138 kts | 97° |
| 2026-04-27 21:46 | 47.48546 | 9.55689 | 1313 ft | 130 kts | 99° |
| 2026-04-27 21:47 | 47.48443 | 9.56659 | 1305 ft | 61 kts | 99° |
| 2026-04-27 21:47 | 47.48409 | 9.56994 | 1309 ft | 14 kts | 98° |
| 2026-04-27 21:47 | 47.48467 | 9.57076 | 1309 ft | 17 kts | 8° |
| 2026-04-27 21:47 | 47.48559 | 9.57042 | 1307 ft | 15 kts | 277° |
| 2026-04-27 21:48 | 47.48578 | 9.56855 | 1307 ft | 20 kts | 278° |
| 2026-04-27 21:48 | 47.48596 | 9.56667 | 1307 ft | 20 kts | 279° |
| 2026-04-27 21:48 | 47.48619 | 9.56448 | 1306 ft | 23 kts | 278° |
| 2026-04-27 21:48 | 47.48645 | 9.56196 | 1309 ft | 24 kts | 279° |
| 2026-04-27 21:49 | 47.48669 | 9.55971 | 1309 ft | 23 kts | 278° |
| 2026-04-27 21:49 | 47.48695 | 9.55718 | 1310 ft | 26 kts | 278° |
| 2026-04-27 21:49 | 47.48713 | 9.55535 | 1308 ft | 12 kts | 278° |
| 2026-04-27 21:49 | 47.48749 | 9.55432 | 1306 ft | 11 kts | 250° |
| 2026-04-27 21:50 | 47.48753 | 9.55397 | 1306 ft | 0 kts | 4° |